sensor_id;sensor_type;location;lat;lon;timestamp;pressure;altitude;pressure_sealevel;temperature;humidity
8627;BME280;4351;51.422;6.794;2023-05-12T00:01:48;104565.38;;;13.83;100.00
8627;BME280;4351;51.422;6.794;2023-05-12T00:04:19;104453.28;;;13.76;100.00
8627;BME280;4351;51.422;6.794;2023-05-12T00:06:56;104335.34;;;13.97;100.00
8627;BME280;4351;51.422;6.794;2023-05-12T00:09:29;104270.50;;;13.78;100.00
8627;BME280;4351;51.422;6.794;2023-05-12T00:12:10;104254.22;;;13.78;100.00
8627;BME280;4351;51.422;6.794;2023-05-12T00:14:49;104262.53;;;13.71;100.00
8627;BME280;4351;51.422;6.794;2023-05-12T00:17:36;104313.25;;;13.65;100.00
8627;BME280;4351;51.422;6.794;2023-05-12T00:20:15;104401.00;;;13.64;100.00
8627;BME280;4351;51.422;6.794;2023-05-12T00:23:03;104488.63;;;13.73;100.00
8627;BME280;4351;51.422;6.794;2023-05-12T00:25:42;104505.91;;;13.65;100.00
8627;BME280;4351;51.422;6.794;2023-05-12T00:28:17;104534.69;;;13.77;100.00
8627;BME280;4351;51.422;6.794;2023-05-12T00:31:00;104418.88;;;13.78;100.00
8627;BME280;4351;51.422;6.794;2023-05-12T00:33:41;104355.63;;;13.74;100.00
8627;BME280;4351;51.422;6.794;2023-05-12T00:36:20;104320.47;;;13.66;100.00
8627;BME280;4351;51.422;6.794;2023-05-12T00:39:02;104308.84;;;13.60;100.00
8627;BME280;4351;51.422;6.794;2023-05-12T00:41:43;104364.03;;;13.57;100.00
8627;BME280;4351;51.422;6.794;2023-05-12T00:44:21;104320.47;;;13.66;100.00
8627;BME280;4351;51.422;6.794;2023-05-12T00:47:02;104317.06;;;13.55;100.00
8627;BME280;4351;51.422;6.794;2023-05-12T00:49:41;104338.81;;;13.49;100.00
8627;BME280;4351;51.422;6.794;2023-05-12T00:52:14;104420.94;;;13.60;100.00
8627;BME280;4351;51.422;6.794;2023-05-12T00:54:49;104450.78;;;13.60;100.00
8627;BME280;4351;51.422;6.794;2023-05-12T00:57:25;104502.44;;;13.52;100.00
8627;BME280;4351;51.422;6.794;2023-05-12T01:00:09;104548.50;;;13.54;100.00
8627;BME280;4351;51.422;6.794;2023-05-12T01:02:48;104604.59;;;13.56;100.00
8627;BME280;4351;51.422;6.794;2023-05-12T01:05:18;104619.91;;;13.62;100.00
8627;BME280;4351;51.422;6.794;2023-05-12T01:08:04;104657.94;;;13.54;100.00
8627;BME280;4351;51.422;6.794;2023-05-12T01:10:42;104651.47;;;13.70;100.00
8627;BME280;4351;51.422;6.794;2023-05-12T01:13:14;104623.63;;;13.55;100.00
8627;BME280;4351;51.422;6.794;2023-05-12T01:15:48;104676.97;;;13.53;100.00
8627;BME280;4351;51.422;6.794;2023-05-12T01:18:31;104792.56;;;13.73;100.00
8627;BME280;4351;51.422;6.794;2023-05-12T01:21:09;104853.03;;;13.89;100.00
8627;BME280;4351;51.422;6.794;2023-05-12T01:23:49;104798.03;;;13.70;100.00
8627;BME280;4351;51.422;6.794;2023-05-12T01:26:32;104786.41;;;13.53;100.00
8627;BME280;4351;51.422;6.794;2023-05-12T01:29:12;104886.78;;;13.55;98.71
8627;BME280;4351;51.422;6.794;2023-05-12T01:31:56;105066.78;;;13.48;90.24
8627;BME280;4351;51.422;6.794;2023-05-12T01:34:36;105335.41;;;13.40;79.10
8627;BME280;4351;51.422;6.794;2023-05-12T01:37:12;105656.44;;;13.45;69.29
8627;BME280;4351;51.422;6.794;2023-05-12T01:39:41;105879.88;;;13.45;62.22
8627;BME280;4351;51.422;6.794;2023-05-12T01:42:18;106095.19;;;13.44;57.84
8627;BME280;4351;51.422;6.794;2023-05-12T01:44:59;106275.25;;;13.48;55.37
8627;BME280;4351;51.422;6.794;2023-05-12T01:47:40;106402.72;;;13.43;54.03
8627;BME280;4351;51.422;6.794;2023-05-12T01:50:22;106571.06;;;13.47;52.51
8627;BME280;4351;51.422;6.794;2023-05-12T01:53:03;106705.91;;;13.49;51.28
8627;BME280;4351;51.422;6.794;2023-05-12T01:55:47;106819.75;;;13.41;50.23
8627;BME280;4351;51.422;6.794;2023-05-12T01:58:31;106927.63;;;13.49;49.13
8627;BME280;4351;51.422;6.794;2023-05-12T02:01:01;107019.84;;;13.47;48.23
8627;BME280;4351;51.422;6.794;2023-05-12T02:03:30;107048.94;;;13.51;47.48
8627;BME280;4351;51.422;6.794;2023-05-12T02:05:58;107066.28;;;13.56;46.89
8627;BME280;4351;51.422;6.794;2023-05-12T02:08:33;107047.31;;;13.58;46.43
8627;BME280;4351;51.422;6.794;2023-05-12T02:11:14;107030.06;;;13.56;46.02
8627;BME280;4351;51.422;6.794;2023-05-12T02:13:59;107014.69;;;13.55;45.65
8627;BME280;4351;51.422;6.794;2023-05-12T02:16:37;107066.38;;;13.60;45.21
8627;BME280;4351;51.422;6.794;2023-05-12T02:19:19;107097.22;;;13.62;44.82
8627;BME280;4351;51.422;6.794;2023-05-12T02:21:58;107101.59;;;13.56;44.58
8627;BME280;4351;51.422;6.794;2023-05-12T02:24:37;107104.19;;;13.53;44.39
8627;BME280;4351;51.422;6.794;2023-05-12T02:27:13;107202.28;;;13.64;44.04
8627;BME280;4351;51.422;6.794;2023-05-12T02:29:45;107183.06;;;13.58;44.02
8627;BME280;4351;51.422;6.794;2023-05-12T02:32:22;107204.72;;;13.55;43.90
8627;BME280;4351;51.422;6.794;2023-05-12T02:35:05;107183.66;;;13.48;43.81
8627;BME280;4351;51.422;6.794;2023-05-12T02:37:54;107222.38;;;13.40;43.85
8627;BME280;4351;51.422;6.794;2023-05-12T02:40:31;107232.47;;;13.46;43.66
8627;BME280;4351;51.422;6.794;2023-05-12T02:43:12;107220.81;;;13.49;43.65
8627;BME280;4351;51.422;6.794;2023-05-12T02:45:53;107039.63;;;13.41;44.02
8627;BME280;4351;51.422;6.794;2023-05-12T02:48:29;107015.97;;;13.37;44.05
8627;BME280;4351;51.422;6.794;2023-05-12T02:51:06;106936.03;;;13.24;44.32
8627;BME280;4351;51.422;6.794;2023-05-12T02:53:41;106944.84;;;13.15;44.38
8627;BME280;4351;51.422;6.794;2023-05-12T02:56:21;107015.50;;;13.20;44.32
8627;BME280;4351;51.422;6.794;2023-05-12T02:59:01;107081.97;;;13.36;44.23
8627;BME280;4351;51.422;6.794;2023-05-12T03:01:45;107014.44;;;13.15;44.35
8627;BME280;4351;51.422;6.794;2023-05-12T03:04:23;106997.06;;;13.08;44.45
8627;BME280;4351;51.422;6.794;2023-05-12T03:07:01;107022.34;;;13.05;44.40
8627;BME280;4351;51.422;6.794;2023-05-12T03:09:40;106914.72;;;13.06;44.66
8627;BME280;4351;51.422;6.794;2023-05-12T03:12:19;107073.91;;;13.05;44.23
8627;BME280;4351;51.422;6.794;2023-05-12T03:15:07;107135.56;;;13.11;44.04
8627;BME280;4351;51.422;6.794;2023-05-12T03:17:41;107102.84;;;13.06;44.01
8627;BME280;4351;51.422;6.794;2023-05-12T03:20:12;107145.31;;;13.06;43.86
8627;BME280;4351;51.422;6.794;2023-05-12T03:22:50;107159.97;;;13.11;43.75
8627;BME280;4351;51.422;6.794;2023-05-12T03:25:26;107196.03;;;13.07;43.65
8627;BME280;4351;51.422;6.794;2023-05-12T03:28:04;107208.78;;;13.09;43.51
8627;BME280;4351;51.422;6.794;2023-05-12T03:30:42;107205.91;;;13.05;43.45
8627;BME280;4351;51.422;6.794;2023-05-12T03:33:24;107209.91;;;13.18;43.40
8627;BME280;4351;51.422;6.794;2023-05-12T03:36:04;107242.28;;;13.12;43.24
8627;BME280;4351;51.422;6.794;2023-05-12T03:38:44;107262.06;;;13.07;43.19
8627;BME280;4351;51.422;6.794;2023-05-12T03:41:22;107225.72;;;13.02;43.26
8627;BME280;4351;51.422;6.794;2023-05-12T03:43:55;107217.72;;;13.07;43.24
8627;BME280;4351;51.422;6.794;2023-05-12T03:46:33;107225.91;;;13.08;43.26
8627;BME280;4351;51.422;6.794;2023-05-12T03:49:14;107220.66;;;13.15;43.29
8627;BME280;4351;51.422;6.794;2023-05-12T03:51:52;107212.09;;;13.01;43.33
8627;BME280;4351;51.422;6.794;2023-05-12T03:54:29;107230.41;;;13.08;43.33
8627;BME280;4351;51.422;6.794;2023-05-12T03:57:11;107208.63;;;13.05;43.38
8627;BME280;4351;51.422;6.794;2023-05-12T03:59:55;107186.72;;;12.98;43.49
8627;BME280;4351;51.422;6.794;2023-05-12T04:02:40;107221.28;;;13.06;43.40
8627;BME280;4351;51.422;6.794;2023-05-12T04:05:25;107125.13;;;12.94;43.69
8627;BME280;4351;51.422;6.794;2023-05-12T04:08:08;107183.13;;;12.99;43.57
8627;BME280;4351;51.422;6.794;2023-05-12T04:10:50;107152.25;;;12.94;43.71
8627;BME280;4351;51.422;6.794;2023-05-12T04:13:34;107173.38;;;13.06;43.71
8627;BME280;4351;51.422;6.794;2023-05-12T04:16:15;107134.53;;;13.07;43.83
8627;BME280;4351;51.422;6.794;2023-05-12T04:18:53;107172.38;;;13.03;43.85
8627;BME280;4351;51.422;6.794;2023-05-12T04:21:35;107147.06;;;13.04;43.94
8627;BME280;4351;51.422;6.794;2023-05-12T04:24:09;107099.22;;;13.06;44.11
8627;BME280;4351;51.422;6.794;2023-05-12T04:26:49;107076.53;;;13.04;44.24
8627;BME280;4351;51.422;6.794;2023-05-12T04:29:30;107019.63;;;13.05;44.41
8627;BME280;4351;51.422;6.794;2023-05-12T04:32:09;106949.16;;;13.08;44.65
8627;BME280;4351;51.422;6.794;2023-05-12T04:34:47;106941.13;;;13.12;44.73
8627;BME280;4351;51.422;6.794;2023-05-12T04:37:28;106939.31;;;13.12;44.81
8627;BME280;4351;51.422;6.794;2023-05-12T04:40:07;106915.94;;;13.17;44.95
8627;BME280;4351;51.422;6.794;2023-05-12T04:42:48;106893.03;;;13.06;45.10
8627;BME280;4351;51.422;6.794;2023-05-12T04:45:27;106606.44;;;13.08;46.09
8627;BME280;4351;51.422;6.794;2023-05-12T04:48:02;106778.22;;;13.07;45.55
8627;BME280;4351;51.422;6.794;2023-05-12T04:50:41;106742.84;;;13.02;45.73
8627;BME280;4351;51.422;6.794;2023-05-12T04:53:20;106682.34;;;13.05;45.96
8627;BME280;4351;51.422;6.794;2023-05-12T04:55:53;106647.09;;;13.06;46.08
8627;BME280;4351;51.422;6.794;2023-05-12T04:58:27;106537.53;;;12.99;46.44
8627;BME280;4351;51.422;6.794;2023-05-12T05:00:57;106479.84;;;13.07;46.66
8627;BME280;4351;51.422;6.794;2023-05-12T05:03:37;106406.63;;;13.08;46.98
8627;BME280;4351;51.422;6.794;2023-05-12T05:06:16;106276.34;;;13.04;47.49
8627;BME280;4351;51.422;6.794;2023-05-12T05:08:52;106147.94;;;13.03;47.95
8627;BME280;4351;51.422;6.794;2023-05-12T05:11:31;106086.56;;;13.08;48.30
8627;BME280;4351;51.422;6.794;2023-05-12T05:14:12;105935.59;;;13.09;48.89
8627;BME280;4351;51.422;6.794;2023-05-12T05:16:54;105855.13;;;13.08;49.44
8627;BME280;4351;51.422;6.794;2023-05-12T05:19:40;105800.00;;;13.09;49.95
8627;BME280;4351;51.422;6.794;2023-05-12T05:22:32;105735.81;;;13.13;50.51
8627;BME280;4351;51.422;6.794;2023-05-12T05:25:12;105668.03;;;13.14;51.11
8627;BME280;4351;51.422;6.794;2023-05-12T05:27:49;105593.88;;;13.12;51.76
8627;BME280;4351;51.422;6.794;2023-05-12T05:30:34;105515.25;;;13.09;52.54
8627;BME280;4351;51.422;6.794;2023-05-12T05:33:16;105470.97;;;13.13;53.17
8627;BME280;4351;51.422;6.794;2023-05-12T05:35:59;105301.91;;;13.05;54.52
8627;BME280;4351;51.422;6.794;2023-05-12T05:38:41;105134.69;;;13.10;56.30
8627;BME280;4351;51.422;6.794;2023-05-12T05:41:22;104996.38;;;13.18;58.82
8627;BME280;4351;51.422;6.794;2023-05-12T05:44:05;104815.63;;;13.12;63.19
8627;BME280;4351;51.422;6.794;2023-05-12T05:46:42;104658.44;;;13.01;68.62
8627;BME280;4351;51.422;6.794;2023-05-12T05:49:21;104610.41;;;13.20;72.48
8627;BME280;4351;51.422;6.794;2023-05-12T05:52:01;104577.00;;;13.15;80.60
8627;BME280;4351;51.422;6.794;2023-05-12T05:54:36;104576.03;;;13.22;88.08
8627;BME280;4351;51.422;6.794;2023-05-12T05:57:14;104559.84;;;13.13;100.00
8627;BME280;4351;51.422;6.794;2023-05-12T05:59:52;104543.53;;;13.18;100.00
8627;BME280;4351;51.422;6.794;2023-05-12T06:02:33;104482.22;;;13.07;100.00
8627;BME280;4351;51.422;6.794;2023-05-12T06:05:16;104416.13;;;13.15;100.00
8627;BME280;4351;51.422;6.794;2023-05-12T06:07:55;104581.53;;;13.16;100.00
8627;BME280;4351;51.422;6.794;2023-05-12T06:10:42;104554.25;;;13.29;100.00
8627;BME280;4351;51.422;6.794;2023-05-12T06:13:28;104493.84;;;13.16;100.00
8627;BME280;4351;51.422;6.794;2023-05-12T06:16:08;104429.50;;;13.29;100.00
8627;BME280;4351;51.422;6.794;2023-05-12T06:18:52;104355.25;;;13.36;100.00
8627;BME280;4351;51.422;6.794;2023-05-12T06:21:37;104317.28;;;13.36;100.00
8627;BME280;4351;51.422;6.794;2023-05-12T06:24:17;104304.66;;;13.35;100.00
8627;BME280;4351;51.422;6.794;2023-05-12T06:26:57;104265.88;;;13.31;100.00
8627;BME280;4351;51.422;6.794;2023-05-12T06:29:33;104238.50;;;13.45;100.00
8627;BME280;4351;51.422;6.794;2023-05-12T06:32:15;104176.00;;;13.52;100.00
8627;BME280;4351;51.422;6.794;2023-05-12T06:34:54;104127.94;;;13.60;100.00
8627;BME280;4351;51.422;6.794;2023-05-12T06:37:31;104077.47;;;13.50;100.00
8627;BME280;4351;51.422;6.794;2023-05-12T06:40:11;104013.03;;;13.64;100.00
8627;BME280;4351;51.422;6.794;2023-05-12T06:42:49;103930.59;;;13.70;100.00
8627;BME280;4351;51.422;6.794;2023-05-12T06:45:36;103861.56;;;13.82;100.00
8627;BME280;4351;51.422;6.794;2023-05-12T06:48:22;103745.38;;;13.63;100.00
8627;BME280;4351;51.422;6.794;2023-05-12T06:51:07;103681.66;;;13.78;100.00
8627;BME280;4351;51.422;6.794;2023-05-12T06:53:47;103610.94;;;13.85;100.00
8627;BME280;4351;51.422;6.794;2023-05-12T06:56:29;103592.28;;;14.04;100.00
8627;BME280;4351;51.422;6.794;2023-05-12T06:59:08;103491.59;;;13.83;100.00
8627;BME280;4351;51.422;6.794;2023-05-12T07:01:51;103455.16;;;13.92;100.00
8627;BME280;4351;51.422;6.794;2023-05-12T07:04:29;103452.56;;;13.87;100.00
8627;BME280;4351;51.422;6.794;2023-05-12T07:07:02;103468.84;;;13.87;100.00
8627;BME280;4351;51.422;6.794;2023-05-12T07:09:46;103513.72;;;13.99;100.00
8627;BME280;4351;51.422;6.794;2023-05-12T07:12:29;103490.56;;;13.87;100.00
8627;BME280;4351;51.422;6.794;2023-05-12T07:15:13;103454.59;;;13.81;100.00
8627;BME280;4351;51.422;6.794;2023-05-12T07:17:56;103392.03;;;13.85;100.00
8627;BME280;4351;51.422;6.794;2023-05-12T07:20:37;103277.69;;;13.69;100.00
8627;BME280;4351;51.422;6.794;2023-05-12T07:23:10;103233.00;;;13.81;100.00
8627;BME280;4351;51.422;6.794;2023-05-12T07:25:42;103202.88;;;13.89;100.00
8627;BME280;4351;51.422;6.794;2023-05-12T07:28:26;103193.81;;;13.90;100.00
8627;BME280;4351;51.422;6.794;2023-05-12T07:31:09;103123.72;;;13.77;100.00
8627;BME280;4351;51.422;6.794;2023-05-12T07:33:53;103104.44;;;13.85;100.00
8627;BME280;4351;51.422;6.794;2023-05-12T07:36:41;103113.06;;;13.97;100.00
8627;BME280;4351;51.422;6.794;2023-05-12T07:39:23;103071.56;;;13.93;100.00
8627;BME280;4351;51.422;6.794;2023-05-12T07:42:01;103013.34;;;14.02;100.00
8627;BME280;4351;51.422;6.794;2023-05-12T07:44:41;102919.81;;;13.88;100.00
8627;BME280;4351;51.422;6.794;2023-05-12T07:47:15;102829.22;;;13.93;100.00
8627;BME280;4351;51.422;6.794;2023-05-12T07:49:58;102752.97;;;13.99;100.00
8627;BME280;4351;51.422;6.794;2023-05-12T07:52:45;102689.06;;;13.91;100.00
8627;BME280;4351;51.422;6.794;2023-05-12T07:55:26;102632.25;;;13.88;100.00
8627;BME280;4351;51.422;6.794;2023-05-12T07:58:13;102618.50;;;13.91;100.00
8627;BME280;4351;51.422;6.794;2023-05-12T08:00:48;102535.78;;;13.81;100.00
8627;BME280;4351;51.422;6.794;2023-05-12T08:03:36;102493.63;;;13.93;100.00
8627;BME280;4351;51.422;6.794;2023-05-12T08:06:20;102447.75;;;13.88;100.00
8627;BME280;4351;51.422;6.794;2023-05-12T08:09:01;102373.72;;;13.86;100.00
8627;BME280;4351;51.422;6.794;2023-05-12T08:11:38;102342.13;;;14.03;100.00
8627;BME280;4351;51.422;6.794;2023-05-12T08:14:24;102316.47;;;14.10;100.00
8627;BME280;4351;51.422;6.794;2023-05-12T08:17:04;102281.47;;;14.04;100.00
8627;BME280;4351;51.422;6.794;2023-05-12T08:19:37;102222.28;;;14.12;100.00
8627;BME280;4351;51.422;6.794;2023-05-12T08:22:15;102183.75;;;14.06;100.00
8627;BME280;4351;51.422;6.794;2023-05-12T08:24:54;102177.41;;;14.23;100.00
8627;BME280;4351;51.422;6.794;2023-05-12T08:27:35;102124.03;;;14.06;100.00
8627;BME280;4351;51.422;6.794;2023-05-12T08:30:23;102124.63;;;14.29;100.00
8627;BME280;4351;51.422;6.794;2023-05-12T08:33:06;102131.97;;;14.27;100.00
8627;BME280;4351;51.422;6.794;2023-05-12T08:35:41;102077.09;;;14.21;100.00
8627;BME280;4351;51.422;6.794;2023-05-12T08:38:22;102043.63;;;14.37;100.00
8627;BME280;4351;51.422;6.794;2023-05-12T08:41:18;102012.13;;;14.34;100.00
8627;BME280;4351;51.422;6.794;2023-05-12T08:43:58;101972.78;;;14.42;100.00
8627;BME280;4351;51.422;6.794;2023-05-12T08:46:42;101899.50;;;14.42;100.00
8627;BME280;4351;51.422;6.794;2023-05-12T08:49:21;101840.66;;;14.42;100.00
8627;BME280;4351;51.422;6.794;2023-05-12T08:52:00;101777.66;;;14.52;100.00
8627;BME280;4351;51.422;6.794;2023-05-12T08:54:36;101711.72;;;14.64;100.00
8627;BME280;4351;51.422;6.794;2023-05-12T08:57:33;101652.22;;;14.61;100.00
8627;BME280;4351;51.422;6.794;2023-05-12T09:00:19;101653.44;;;14.55;100.00
8627;BME280;4351;51.422;6.794;2023-05-12T09:02:57;101656.38;;;14.67;100.00
8627;BME280;4351;51.422;6.794;2023-05-12T09:05:43;101638.78;;;14.73;100.00
8627;BME280;4351;51.422;6.794;2023-05-12T09:08:28;101643.75;;;14.80;100.00
8627;BME280;4351;51.422;6.794;2023-05-12T09:11:10;101678.47;;;14.90;100.00
8627;BME280;4351;51.422;6.794;2023-05-12T09:13:57;101691.59;;;14.98;100.00
8627;BME280;4351;51.422;6.794;2023-05-12T09:16:44;101705.84;;;14.87;100.00
8627;BME280;4351;51.422;6.794;2023-05-12T09:19:20;101682.84;;;14.92;100.00
8627;BME280;4351;51.422;6.794;2023-05-12T09:22:01;101670.09;;;15.08;100.00
8627;BME280;4351;51.422;6.794;2023-05-12T09:24:37;101590.69;;;15.17;100.00
8627;BME280;4351;51.422;6.794;2023-05-12T09:27:27;101554.91;;;15.10;100.00
8627;BME280;4351;51.422;6.794;2023-05-12T09:30:12;101547.56;;;15.25;100.00
8627;BME280;4351;51.422;6.794;2023-05-12T09:32:51;101549.78;;;15.33;100.00
8627;BME280;4351;51.422;6.794;2023-05-12T09:35:29;101522.69;;;15.32;100.00
8627;BME280;4351;51.422;6.794;2023-05-12T09:38:11;101515.41;;;15.32;100.00
8627;BME280;4351;51.422;6.794;2023-05-12T09:40:56;101527.59;;;15.26;100.00
8627;BME280;4351;51.422;6.794;2023-05-12T09:43:44;101568.28;;;15.41;100.00
8627;BME280;4351;51.422;6.794;2023-05-12T09:46:26;101477.25;;;15.47;100.00
8627;BME280;4351;51.422;6.794;2023-05-12T09:49:00;101382.22;;;15.45;100.00
8627;BME280;4351;51.422;6.794;2023-05-12T09:51:34;101297.03;;;15.58;100.00
8627;BME280;4351;51.422;6.794;2023-05-12T09:54:10;101228.53;;;15.52;100.00
8627;BME280;4351;51.422;6.794;2023-05-12T09:56:59;101240.00;;;15.69;100.00
8627;BME280;4351;51.422;6.794;2023-05-12T09:59:52;101233.06;;;15.65;100.00
8627;BME280;4351;51.422;6.794;2023-05-12T10:02:27;101224.22;;;15.74;100.00
8627;BME280;4351;51.422;6.794;2023-05-12T10:05:14;101184.66;;;15.82;100.00
8627;BME280;4351;51.422;6.794;2023-05-12T10:07:59;101165.19;;;16.00;100.00
8627;BME280;4351;51.422;6.794;2023-05-12T10:10:40;101090.91;;;15.99;100.00
8627;BME280;4351;51.422;6.794;2023-05-12T10:13:19;101043.78;;;15.98;100.00
8627;BME280;4351;51.422;6.794;2023-05-12T10:16:04;101013.09;;;15.96;100.00
8627;BME280;4351;51.422;6.794;2023-05-12T10:18:43;101036.22;;;16.02;100.00
8627;BME280;4351;51.422;6.794;2023-05-12T10:21:30;101092.28;;;16.05;100.00
8627;BME280;4351;51.422;6.794;2023-05-12T10:24:14;101132.38;;;16.03;100.00
8627;BME280;4351;51.422;6.794;2023-05-12T10:26:54;101121.59;;;16.13;100.00
8627;BME280;4351;51.422;6.794;2023-05-12T10:29:39;101066.16;;;16.02;100.00
8627;BME280;4351;51.422;6.794;2023-05-12T10:32:15;101048.03;;;16.14;100.00
8627;BME280;4351;51.422;6.794;2023-05-12T10:35:06;101027.97;;;16.15;100.00
8627;BME280;4351;51.422;6.794;2023-05-12T10:37:48;101037.03;;;16.27;100.00
8627;BME280;4351;51.422;6.794;2023-05-12T10:40:29;101038.38;;;16.22;100.00
8627;BME280;4351;51.422;6.794;2023-05-12T10:43:20;101053.22;;;16.29;100.00
8627;BME280;4351;51.422;6.794;2023-05-12T10:46:05;101090.22;;;16.20;100.00
8627;BME280;4351;51.422;6.794;2023-05-12T10:48:58;101082.69;;;16.35;100.00
8627;BME280;4351;51.422;6.794;2023-05-12T10:51:46;101048.53;;;16.54;100.00
8627;BME280;4351;51.422;6.794;2023-05-12T10:54:38;101032.78;;;16.58;100.00
8627;BME280;4351;51.422;6.794;2023-05-12T10:57:18;101040.53;;;16.85;100.00
8627;BME280;4351;51.422;6.794;2023-05-12T11:00:02;101058.13;;;16.81;100.00
8627;BME280;4351;51.422;6.794;2023-05-12T11:02:48;101047.59;;;16.88;100.00
8627;BME280;4351;51.422;6.794;2023-05-12T11:05:33;101046.97;;;16.96;100.00
8627;BME280;4351;51.422;6.794;2023-05-12T11:08:15;101046.19;;;17.05;100.00
8627;BME280;4351;51.422;6.794;2023-05-12T11:10:57;101066.88;;;17.08;100.00
8627;BME280;4351;51.422;6.794;2023-05-12T11:13:37;101087.31;;;17.14;100.00
8627;BME280;4351;51.422;6.794;2023-05-12T11:16:19;101109.34;;;17.10;100.00
8627;BME280;4351;51.422;6.794;2023-05-12T11:18:59;101109.00;;;17.15;100.00
8627;BME280;4351;51.422;6.794;2023-05-12T11:21:40;101118.16;;;17.14;100.00
8627;BME280;4351;51.422;6.794;2023-05-12T11:24:19;101118.53;;;17.21;100.00
8627;BME280;4351;51.422;6.794;2023-05-12T11:26:54;101101.13;;;17.33;100.00
8627;BME280;4351;51.422;6.794;2023-05-12T11:29:33;101101.63;;;17.39;100.00
8627;BME280;4351;51.422;6.794;2023-05-12T11:32:13;101110.00;;;17.47;100.00
8627;BME280;4351;51.422;6.794;2023-05-12T11:35:07;101141.28;;;17.31;100.00
8627;BME280;4351;51.422;6.794;2023-05-12T11:37:57;101152.09;;;17.33;100.00
8627;BME280;4351;51.422;6.794;2023-05-12T11:40:31;101177.47;;;17.33;100.00
8627;BME280;4351;51.422;6.794;2023-05-12T11:43:08;101170.91;;;17.36;100.00
8627;BME280;4351;51.422;6.794;2023-05-12T11:45:47;101169.41;;;17.43;100.00
8627;BME280;4351;51.422;6.794;2023-05-12T11:48:31;101204.63;;;17.35;100.00
8627;BME280;4351;51.422;6.794;2023-05-12T11:51:09;101223.59;;;17.37;100.00
8627;BME280;4351;51.422;6.794;2023-05-12T11:53:50;101221.22;;;17.32;100.00
8627;BME280;4351;51.422;6.794;2023-05-12T11:56:34;101221.09;;;17.33;100.00
8627;BME280;4351;51.422;6.794;2023-05-12T11:59:08;101228.16;;;17.36;100.00
8627;BME280;4351;51.422;6.794;2023-05-12T12:01:50;101226.88;;;17.63;100.00
8627;BME280;4351;51.422;6.794;2023-05-12T12:04:33;101255.13;;;17.62;100.00
8627;BME280;4351;51.422;6.794;2023-05-12T12:07:27;101260.00;;;17.58;100.00
8627;BME280;4351;51.422;6.794;2023-05-12T12:10:13;101262.84;;;17.57;100.00
8627;BME280;4351;51.422;6.794;2023-05-12T12:12:53;101274.13;;;17.64;100.00
8627;BME280;4351;51.422;6.794;2023-05-12T12:15:33;101289.75;;;17.50;100.00
8627;BME280;4351;51.422;6.794;2023-05-12T12:18:16;101286.53;;;17.56;100.00
8627;BME280;4351;51.422;6.794;2023-05-12T12:20:56;101289.00;;;17.60;100.00
8627;BME280;4351;51.422;6.794;2023-05-12T12:23:33;101299.38;;;17.77;100.00
8627;BME280;4351;51.422;6.794;2023-05-12T12:26:34;101308.22;;;17.58;100.00
8627;BME280;4351;51.422;6.794;2023-05-12T12:29:18;101300.63;;;17.62;100.00
8627;BME280;4351;51.422;6.794;2023-05-12T12:31:55;101301.88;;;17.57;100.00
8627;BME280;4351;51.422;6.794;2023-05-12T12:34:34;101289.41;;;17.43;100.00
8627;BME280;4351;51.422;6.794;2023-05-12T12:37:14;101286.53;;;17.56;100.00
8627;BME280;4351;51.422;6.794;2023-05-12T12:39:53;101299.44;;;17.54;100.00
8627;BME280;4351;51.422;6.794;2023-05-12T12:42:37;101296.41;;;17.69;100.00
8627;BME280;4351;51.422;6.794;2023-05-12T12:45:17;101299.13;;;17.80;100.00
8627;BME280;4351;51.422;6.794;2023-05-12T12:48:07;101288.19;;;17.92;100.00
8627;BME280;4351;51.422;6.794;2023-05-12T12:50:47;101296.31;;;18.03;100.00
8627;BME280;4351;51.422;6.794;2023-05-12T12:53:33;101288.28;;;18.02;100.00
8627;BME280;4351;51.422;6.794;2023-05-12T12:56:11;101288.28;;;18.02;100.00
8627;BME280;4351;51.422;6.794;2023-05-12T12:58:54;101277.22;;;18.03;100.00
8627;BME280;4351;51.422;6.794;2023-05-12T13:01:38;101265.84;;;17.98;100.00
8627;BME280;4351;51.422;6.794;2023-05-12T13:04:18;101269.94;;;17.92;100.00
8627;BME280;4351;51.422;6.794;2023-05-12T13:07:04;101276.41;;;17.91;100.00
8627;BME280;4351;51.422;6.794;2023-05-12T13:09:45;101279.28;;;17.90;100.00
8627;BME280;4351;51.422;6.794;2023-05-12T13:12:28;101267.69;;;17.98;100.00
8627;BME280;4351;51.422;6.794;2023-05-12T13:15:11;101262.06;;;18.11;100.00
8627;BME280;4351;51.422;6.794;2023-05-12T13:17:49;101261.31;;;18.20;100.00
8627;BME280;4351;51.422;6.794;2023-05-12T13:20:32;101263.91;;;18.10;100.00
8627;BME280;4351;51.422;6.794;2023-05-12T13:23:05;101258.13;;;18.03;100.00
8627;BME280;4351;51.422;6.794;2023-05-12T13:25:45;101262.00;;;18.01;100.00
8627;BME280;4351;51.422;6.794;2023-05-12T13:28:22;101250.59;;;18.29;100.00
8627;BME280;4351;51.422;6.794;2023-05-12T13:31:07;101269.66;;;18.07;100.00
8627;BME280;4351;51.422;6.794;2023-05-12T13:33:50;101267.56;;;17.99;100.00
8627;BME280;4351;51.422;6.794;2023-05-12T13:36:28;101275.28;;;17.94;100.00
8627;BME280;4351;51.422;6.794;2023-05-12T13:39:08;101259.69;;;17.85;100.00
8627;BME280;4351;51.422;6.794;2023-05-12T13:41:42;101241.06;;;17.90;100.00
8627;BME280;4351;51.422;6.794;2023-05-12T13:44:13;101242.38;;;18.07;100.00
8627;BME280;4351;51.422;6.794;2023-05-12T13:46:52;101258.75;;;18.07;100.00
8627;BME280;4351;51.422;6.794;2023-05-12T13:49:31;101249.94;;;18.03;100.00
8627;BME280;4351;51.422;6.794;2023-05-12T13:52:09;101259.19;;;18.12;100.00
8627;BME280;4351;51.422;6.794;2023-05-12T13:54:53;101257.53;;;18.33;100.00
8627;BME280;4351;51.422;6.794;2023-05-12T13:57:32;101268.31;;;18.34;100.00
8627;BME280;4351;51.422;6.794;2023-05-12T14:00:14;101268.44;;;18.33;100.00
8627;BME280;4351;51.422;6.794;2023-05-12T14:02:58;101265.66;;;18.44;100.00
8627;BME280;4351;51.422;6.794;2023-05-12T14:05:36;101268.72;;;18.72;100.00
8627;BME280;4351;51.422;6.794;2023-05-12T14:08:09;101284.84;;;18.97;100.00
8627;BME280;4351;51.422;6.794;2023-05-12T14:10:50;101288.69;;;18.94;100.00
8627;BME280;4351;51.422;6.794;2023-05-12T14:13:30;101294.72;;;18.88;100.00